メインページ
METAR-TAF:

METAR-TAF

空港 :

Rafha, サウジアラビア

緯度: 29-37N, 経度: 043-29E, 海抜: 449m

現時点の気象観測

当レポートは20分前の17:00(UTC)に作成
の風 8kt
気温 35°C
湿度 12%
気圧 1010 hPa
視程10km以上
1,500メートル以下は雲なし、積乱雲なし

METAR: OERF 251700Z 10008KT CAVOK 35/01 Q1010

時間: 20:20 (17:20 UTC)

予報

当レポートは6時間20分前の11:00(UTC)に作成
予報は25日の 12時(UTC)から 26日の 18時(UTC)まで有効
東/北東の風 12kt
視程: 7000m
25日の 18時(UTC)から 25日の 20時(UTC)まで徐々に
南東の風 10kt

TAF: OERF 251100Z 2512/2618 06012KT 7000 NSC BECMG 2518/2520 13010KT

4,000以上の空港の気象観測と天気予報(METAR報とTAF報)

利用可能な観測所は地図上に黄色い丸と赤い丸で示す。

丸の上にカーソルを重ねると観測所名を参照できる。

次にクリックすると気象観測と天気予報を参照できる。

マップの切り替え:黒色「×」印の緑ボタンをクリックして拡大、「-」印の緑ボタンをクリックして縮小、緑色の三角印をクリックして隣りの地図に切り替え


METAR-TAF: